sensor_id;sensor_type;location;lat;lon;timestamp;P1;durP1;ratioP1;P2;durP2;ratioP2
39680;SDS011;26327;42.550;23.120;2022-07-30T06:35:19;25.10;;;13.88;;
39680;SDS011;26327;42.550;23.120;2022-07-30T06:37:45;21.95;;;13.57;;
39680;SDS011;26327;42.550;23.120;2022-07-30T06:40:10;18.27;;;13.10;;
39680;SDS011;26327;42.550;23.120;2022-07-30T06:42:37;26.95;;;13.55;;
39680;SDS011;26327;42.550;23.120;2022-07-30T06:45:02;21.92;;;12.98;;
39680;SDS011;26327;42.550;23.120;2022-07-30T06:47:29;23.10;;;13.35;;
39680;SDS011;26327;42.550;23.120;2022-07-30T06:49:55;24.50;;;15.02;;
39680;SDS011;26327;42.550;23.120;2022-07-30T06:52:21;20.50;;;12.93;;
39680;SDS011;26327;42.550;23.120;2022-07-30T06:54:47;23.20;;;13.00;;
39680;SDS011;26327;42.550;23.120;2022-07-30T06:57:13;23.40;;;13.02;;
39680;SDS011;26327;42.550;23.120;2022-07-30T06:59:39;25.77;;;14.48;;
39680;SDS011;26327;42.550;23.120;2022-07-30T07:02:04;25.88;;;13.50;;
39680;SDS011;26327;42.550;23.120;2022-07-30T07:04:30;21.13;;;13.25;;
39680;SDS011;26327;42.550;23.120;2022-07-30T07:06:56;20.85;;;12.35;;
39680;SDS011;26327;42.550;23.120;2022-07-30T07:09:22;22.15;;;14.02;;
39680;SDS011;26327;42.550;23.120;2022-07-30T07:11:47;21.90;;;13.10;;
39680;SDS011;26327;42.550;23.120;2022-07-30T07:14:13;20.83;;;12.57;;
39680;SDS011;26327;42.550;23.120;2022-07-30T07:16:38;23.92;;;13.55;;
39680;SDS011;26327;42.550;23.120;2022-07-30T07:19:04;22.70;;;13.18;;
39680;SDS011;26327;42.550;23.120;2022-07-30T07:21:30;22.92;;;13.07;;
39680;SDS011;26327;42.550;23.120;2022-07-30T07:23:55;21.55;;;13.57;;
39680;SDS011;26327;42.550;23.120;2022-07-30T07:26:20;19.65;;;13.05;;
39680;SDS011;26327;42.550;23.120;2022-07-30T07:28:46;15.75;;;10.40;;
39680;SDS011;26327;42.550;23.120;2022-07-30T07:31:12;20.65;;;13.55;;
39680;SDS011;26327;42.550;23.120;2022-07-30T07:33:37;21.27;;;12.60;;
39680;SDS011;26327;42.550;23.120;2022-07-30T07:36:04;20.23;;;12.80;;
39680;SDS011;26327;42.550;23.120;2022-07-30T07:38:30;18.40;;;12.23;;
39680;SDS011;26327;42.550;23.120;2022-07-30T07:40:56;25.02;;;13.27;;
39680;SDS011;26327;42.550;23.120;2022-07-30T07:43:22;20.27;;;12.05;;
39680;SDS011;26327;42.550;23.120;2022-07-30T07:45:49;17.23;;;11.25;;
39680;SDS011;26327;42.550;23.120;2022-07-30T07:48:14;18.38;;;11.30;;
39680;SDS011;26327;42.550;23.120;2022-07-30T07:50:40;18.20;;;10.05;;
39680;SDS011;26327;42.550;23.120;2022-07-30T07:53:05;11.95;;;9.23;;
39680;SDS011;26327;42.550;23.120;2022-07-30T07:55:31;12.50;;;9.00;;
39680;SDS011;26327;42.550;23.120;2022-07-30T07:57:56;16.35;;;8.65;;
39680;SDS011;26327;42.550;23.120;2022-07-30T08:00:21;14.85;;;9.02;;
39680;SDS011;26327;42.550;23.120;2022-07-30T08:02:47;13.32;;;8.48;;
39680;SDS011;26327;42.550;23.120;2022-07-30T08:05:13;14.70;;;9.25;;
39680;SDS011;26327;42.550;23.120;2022-07-30T08:07:40;14.23;;;9.00;;
39680;SDS011;26327;42.550;23.120;2022-07-30T08:10:07;17.00;;;9.07;;
39680;SDS011;26327;42.550;23.120;2022-07-30T08:12:32;9.93;;;8.55;;
39680;SDS011;26327;42.550;23.120;2022-07-30T08:14:58;11.85;;;8.35;;
39680;SDS011;26327;42.550;23.120;2022-07-30T08:17:24;9.25;;;8.10;;
39680;SDS011;26327;42.550;23.120;2022-07-30T08:19:49;8.95;;;7.85;;
39680;SDS011;26327;42.550;23.120;2022-07-30T08:22:15;12.48;;;8.73;;
39680;SDS011;26327;42.550;23.120;2022-07-30T08:24:41;9.70;;;8.05;;
39680;SDS011;26327;42.550;23.120;2022-07-30T08:27:06;10.18;;;8.73;;
39680;SDS011;26327;42.550;23.120;2022-07-30T08:29:32;15.38;;;10.10;;
39680;SDS011;26327;42.550;23.120;2022-07-30T08:31:57;10.65;;;8.80;;
39680;SDS011;26327;42.550;23.120;2022-07-30T08:34:22;19.90;;;8.93;;
39680;SDS011;26327;42.550;23.120;2022-07-30T08:36:48;18.60;;;15.10;;
39680;SDS011;26327;42.550;23.120;2022-07-30T08:39:13;16.95;;;8.55;;
39680;SDS011;26327;42.550;23.120;2022-07-30T08:44:11;14.00;;;8.93;;
39680;SDS011;26327;42.550;23.120;2022-07-30T08:46:40;11.30;;;8.95;;
39680;SDS011;26327;42.550;23.120;2022-07-30T08:49:09;12.18;;;9.05;;
39680;SDS011;26327;42.550;23.120;2022-07-30T08:51:55;10.55;;;8.65;;
39680;SDS011;26327;42.550;23.120;2022-07-30T08:54:21;12.27;;;9.98;;
39680;SDS011;26327;42.550;23.120;2022-07-30T08:56:49;12.90;;;9.82;;
39680;SDS011;26327;42.550;23.120;2022-07-30T08:59:18;11.75;;;8.95;;
39680;SDS011;26327;42.550;23.120;2022-07-30T09:01:47;16.55;;;9.38;;
39680;SDS011;26327;42.550;23.120;2022-07-30T09:04:13;11.05;;;9.40;;
39680;SDS011;26327;42.550;23.120;2022-07-30T09:06:39;15.75;;;9.80;;
39680;SDS011;26327;42.550;23.120;2022-07-30T09:09:05;13.55;;;9.50;;
39680;SDS011;26327;42.550;23.120;2022-07-30T09:11:32;10.13;;;8.70;;
39680;SDS011;26327;42.550;23.120;2022-07-30T09:14:06;10.00;;;8.98;;
39680;SDS011;26327;42.550;23.120;2022-07-30T09:16:33;13.50;;;9.55;;
39680;SDS011;26327;42.550;23.120;2022-07-30T09:19:10;10.57;;;8.77;;
39680;SDS011;26327;42.550;23.120;2022-07-30T09:21:39;11.20;;;8.77;;
39680;SDS011;26327;42.550;23.120;2022-07-30T09:24:09;9.68;;;8.25;;
39680;SDS011;26327;42.550;23.120;2022-07-30T09:29:25;12.38;;;9.15;;
39680;SDS011;26327;42.550;23.120;2022-07-30T09:31:59;10.70;;;9.43;;
39680;SDS011;26327;42.550;23.120;2022-07-30T09:34:30;10.25;;;9.15;;
39680;SDS011;26327;42.550;23.120;2022-07-30T09:36:56;10.05;;;8.68;;
39680;SDS011;26327;42.550;23.120;2022-07-30T09:39:27;11.95;;;9.75;;
39680;SDS011;26327;42.550;23.120;2022-07-30T09:41:53;10.45;;;9.38;;
39680;SDS011;26327;42.550;23.120;2022-07-30T09:44:27;12.25;;;10.02;;
39680;SDS011;26327;42.550;23.120;2022-07-30T09:46:53;13.38;;;10.60;;
39680;SDS011;26327;42.550;23.120;2022-07-30T09:49:24;12.95;;;9.13;;
39680;SDS011;26327;42.550;23.120;2022-07-30T09:51:52;10.68;;;9.57;;
39680;SDS011;26327;42.550;23.120;2022-07-30T09:56:46;11.10;;;9.38;;
39680;SDS011;26327;42.550;23.120;2022-07-30T09:59:24;19.02;;;10.48;;
39680;SDS011;26327;42.550;23.120;2022-07-30T10:01:53;13.38;;;9.48;;
39680;SDS011;26327;42.550;23.120;2022-07-30T10:04:29;11.55;;;9.82;;
39680;SDS011;26327;42.550;23.120;2022-07-30T10:06:57;12.02;;;9.93;;
39680;SDS011;26327;42.550;23.120;2022-07-30T10:09:30;15.38;;;10.35;;
39680;SDS011;26327;42.550;23.120;2022-07-30T10:12:01;16.30;;;10.45;;
39680;SDS011;26327;42.550;23.120;2022-07-30T10:14:31;11.45;;;9.85;;
39680;SDS011;26327;42.550;23.120;2022-07-30T10:16:59;10.90;;;9.80;;
39680;SDS011;26327;42.550;23.120;2022-07-30T10:19:25;12.00;;;9.63;;
39680;SDS011;26327;42.550;23.120;2022-07-30T10:21:51;11.80;;;10.27;;
39680;SDS011;26327;42.550;23.120;2022-07-30T10:24:20;15.88;;;11.05;;
39680;SDS011;26327;42.550;23.120;2022-07-30T10:26:46;14.07;;;10.52;;
39680;SDS011;26327;42.550;23.120;2022-07-30T10:29:14;11.48;;;9.57;;
39680;SDS011;26327;42.550;23.120;2022-07-30T10:31:42;11.88;;;9.55;;
39680;SDS011;26327;42.550;23.120;2022-07-30T10:36:40;13.75;;;10.00;;
39680;SDS011;26327;42.550;23.120;2022-07-30T10:39:09;15.25;;;10.00;;
39680;SDS011;26327;42.550;23.120;2022-07-30T10:47:09;10.95;;;9.85;;
39680;SDS011;26327;42.550;23.120;2022-07-30T10:49:38;10.35;;;8.75;;
39680;SDS011;26327;42.550;23.120;2022-07-30T10:52:07;10.25;;;8.60;;
39680;SDS011;26327;42.550;23.120;2022-07-30T10:54:36;12.32;;;8.80;;
39680;SDS011;26327;42.550;23.120;2022-07-30T11:00:23;10.80;;;8.60;;
39680;SDS011;26327;42.550;23.120;2022-07-30T11:02:24;12.15;;;9.38;;
39680;SDS011;26327;42.550;23.120;2022-07-30T11:05:24;12.75;;;8.98;;
39680;SDS011;26327;42.550;23.120;2022-07-30T11:07:42;11.80;;;8.00;;
39680;SDS011;26327;42.550;23.120;2022-07-30T11:10:13;11.70;;;8.80;;
39680;SDS011;26327;42.550;23.120;2022-07-30T11:13:04;9.75;;;7.75;;
39680;SDS011;26327;42.550;23.120;2022-07-30T11:15:50;10.38;;;7.88;;
39680;SDS011;26327;42.550;23.120;2022-07-30T11:18:20;11.95;;;7.63;;
39680;SDS011;26327;42.550;23.120;2022-07-30T11:23:38;9.52;;;7.63;;
39680;SDS011;26327;42.550;23.120;2022-07-30T11:26:04;13.05;;;8.30;;
39680;SDS011;26327;42.550;23.120;2022-07-30T11:28:34;10.45;;;8.90;;
39680;SDS011;26327;42.550;23.120;2022-07-30T11:34:23;11.18;;;7.95;;
39680;SDS011;26327;42.550;23.120;2022-07-30T11:47:50;21.00;;;9.30;;
39680;SDS011;26327;42.550;23.120;2022-07-30T11:52:53;10.02;;;9.00;;
39680;SDS011;26327;42.550;23.120;2022-07-30T11:55:27;9.93;;;8.68;;
39680;SDS011;26327;42.550;23.120;2022-07-30T11:57:57;12.38;;;8.13;;
39680;SDS011;26327;42.550;23.120;2022-07-30T12:00:25;10.18;;;8.90;;
39680;SDS011;26327;42.550;23.120;2022-07-30T12:02:59;16.10;;;9.65;;
39680;SDS011;26327;42.550;23.120;2022-07-30T12:05:25;10.15;;;9.10;;
39680;SDS011;26327;42.550;23.120;2022-07-30T12:07:55;13.07;;;9.88;;
39680;SDS011;26327;42.550;23.120;2022-07-30T12:10:24;11.98;;;9.05;;
39680;SDS011;26327;42.550;23.120;2022-07-30T12:12:49;11.77;;;9.38;;
39680;SDS011;26327;42.550;23.120;2022-07-30T12:15:29;10.25;;;9.18;;
39680;SDS011;26327;42.550;23.120;2022-07-30T12:17:56;10.45;;;9.10;;
39680;SDS011;26327;42.550;23.120;2022-07-30T12:20:22;9.50;;;8.15;;
39680;SDS011;26327;42.550;23.120;2022-07-30T12:22:48;11.23;;;9.75;;
39680;SDS011;26327;42.550;23.120;2022-07-30T12:25:13;10.32;;;8.77;;
39680;SDS011;26327;42.550;23.120;2022-07-30T12:27:39;9.60;;;8.70;;
39680;SDS011;26327;42.550;23.120;2022-07-30T12:30:08;10.73;;;9.70;;
39680;SDS011;26327;42.550;23.120;2022-07-30T12:32:35;9.65;;;8.63;;
39680;SDS011;26327;42.550;23.120;2022-07-30T12:35:00;10.07;;;9.07;;
39680;SDS011;26327;42.550;23.120;2022-07-30T12:37:26;13.75;;;9.18;;
39680;SDS011;26327;42.550;23.120;2022-07-30T12:40:08;12.77;;;8.65;;
39680;SDS011;26327;42.550;23.120;2022-07-30T12:42:51;15.18;;;8.57;;
39680;SDS011;26327;42.550;23.120;2022-07-30T12:45:30;9.98;;;8.25;;
39680;SDS011;26327;42.550;23.120;2022-07-30T12:50:23;9.35;;;8.40;;
39680;SDS011;26327;42.550;23.120;2022-07-30T12:52:49;8.68;;;7.55;;
39680;SDS011;26327;42.550;23.120;2022-07-30T12:55:17;8.98;;;8.18;;
39680;SDS011;26327;42.550;23.120;2022-07-30T12:57:59;9.05;;;7.47;;
39680;SDS011;26327;42.550;23.120;2022-07-30T13:00:30;9.73;;;7.97;;
39680;SDS011;26327;42.550;23.120;2022-07-30T13:03:29;9.45;;;8.45;;
39680;SDS011;26327;42.550;23.120;2022-07-30T13:06:09;8.35;;;7.45;;
39680;SDS011;26327;42.550;23.120;2022-07-30T13:08:53;8.95;;;8.07;;
39680;SDS011;26327;42.550;23.120;2022-07-30T13:11:22;10.73;;;8.27;;
39680;SDS011;26327;42.550;23.120;2022-07-30T13:14:02;11.65;;;8.20;;
39680;SDS011;26327;42.550;23.120;2022-07-30T13:16:31;9.70;;;8.70;;
39680;SDS011;26327;42.550;23.120;2022-07-30T13:18:58;8.90;;;8.07;;
39680;SDS011;26327;42.550;23.120;2022-07-30T13:21:26;11.73;;;7.68;;
39680;SDS011;26327;42.550;23.120;2022-07-30T13:23:52;9.75;;;8.75;;
39680;SDS011;26327;42.550;23.120;2022-07-30T13:26:17;10.30;;;9.02;;
39680;SDS011;26327;42.550;23.120;2022-07-30T13:28:43;8.75;;;7.95;;
39680;SDS011;26327;42.550;23.120;2022-07-30T13:31:10;9.00;;;8.02;;
39680;SDS011;26327;42.550;23.120;2022-07-30T13:33:36;9.43;;;8.07;;
39680;SDS011;26327;42.550;23.120;2022-07-30T13:36:03;9.13;;;8.30;;
39680;SDS011;26327;42.550;23.120;2022-07-30T13:38:29;11.90;;;8.57;;
39680;SDS011;26327;42.550;23.120;2022-07-30T13:41:12;9.13;;;8.23;;
39680;SDS011;26327;42.550;23.120;2022-07-30T13:44:06;9.35;;;8.30;;
39680;SDS011;26327;42.550;23.120;2022-07-30T13:46:42;10.40;;;8.23;;
39680;SDS011;26327;42.550;23.120;2022-07-30T13:49:08;10.10;;;8.20;;
39680;SDS011;26327;42.550;23.120;2022-07-30T13:51:35;10.38;;;8.15;;
39680;SDS011;26327;42.550;23.120;2022-07-30T13:54:01;11.25;;;7.88;;
39680;SDS011;26327;42.550;23.120;2022-07-30T13:56:26;10.30;;;8.68;;
39680;SDS011;26327;42.550;23.120;2022-07-30T13:58:52;9.98;;;8.50;;
39680;SDS011;26327;42.550;23.120;2022-07-30T14:01:20;8.57;;;7.68;;
39680;SDS011;26327;42.550;23.120;2022-07-30T14:03:46;9.60;;;7.90;;
39680;SDS011;26327;42.550;23.120;2022-07-30T14:06:19;11.18;;;8.30;;
39680;SDS011;26327;42.550;23.120;2022-07-30T14:08:50;9.85;;;8.48;;
39680;SDS011;26327;42.550;23.120;2022-07-30T14:11:17;9.93;;;8.10;;
39680;SDS011;26327;42.550;23.120;2022-07-30T14:13:43;11.25;;;7.97;;
39680;SDS011;26327;42.550;23.120;2022-07-30T14:16:14;8.70;;;7.43;;
39680;SDS011;26327;42.550;23.120;2022-07-30T14:18:48;9.00;;;7.10;;
39680;SDS011;26327;42.550;23.120;2022-07-30T14:21:21;8.55;;;7.63;;
39680;SDS011;26327;42.550;23.120;2022-07-30T14:23:52;10.63;;;7.88;;
39680;SDS011;26327;42.550;23.120;2022-07-30T14:26:22;7.78;;;7.00;;
39680;SDS011;26327;42.550;23.120;2022-07-30T14:28:59;8.05;;;7.25;;
39680;SDS011;26327;42.550;23.120;2022-07-30T14:31:29;8.45;;;7.20;;
39680;SDS011;26327;42.550;23.120;2022-07-30T14:33:54;9.43;;;7.95;;
39680;SDS011;26327;42.550;23.120;2022-07-30T14:36:33;9.20;;;8.30;;
39680;SDS011;26327;42.550;23.120;2022-07-30T14:39:09;9.15;;;7.97;;
39680;SDS011;26327;42.550;23.120;2022-07-30T14:41:34;9.40;;;8.45;;
39680;SDS011;26327;42.550;23.120;2022-07-30T14:44:04;10.98;;;8.82;;
39680;SDS011;26327;42.550;23.120;2022-07-30T14:46:43;10.32;;;8.15;;
39680;SDS011;26327;42.550;23.120;2022-07-30T14:49:13;12.70;;;8.48;;
39680;SDS011;26327;42.550;23.120;2022-07-30T14:51:43;10.68;;;8.90;;
39680;SDS011;26327;42.550;23.120;2022-07-30T14:54:16;10.90;;;8.75;;
39680;SDS011;26327;42.550;23.120;2022-07-30T14:56:45;14.27;;;9.43;;
39680;SDS011;26327;42.550;23.120;2022-07-30T14:59:21;9.82;;;8.82;;
39680;SDS011;26327;42.550;23.120;2022-07-30T15:01:57;9.82;;;8.88;;
39680;SDS011;26327;42.550;23.120;2022-07-30T15:04:25;11.23;;;9.93;;
39680;SDS011;26327;42.550;23.120;2022-07-30T15:07:08;12.40;;;9.88;;
39680;SDS011;26327;42.550;23.120;2022-07-30T15:09:36;11.32;;;9.43;;
39680;SDS011;26327;42.550;23.120;2022-07-30T15:12:19;11.00;;;9.88;;
39680;SDS011;26327;42.550;23.120;2022-07-30T15:14:56;12.07;;;9.30;;
39680;SDS011;26327;42.550;23.120;2022-07-30T15:17:27;10.88;;;9.52;;
39680;SDS011;26327;42.550;23.120;2022-07-30T15:20:06;11.18;;;9.82;;
39680;SDS011;26327;42.550;23.120;2022-07-30T15:25:18;13.30;;;9.57;;
39680;SDS011;26327;42.550;23.120;2022-07-30T15:27:44;12.52;;;10.10;;
39680;SDS011;26327;42.550;23.120;2022-07-30T15:30:10;13.13;;;10.40;;
39680;SDS011;26327;42.550;23.120;2022-07-30T15:32:39;12.55;;;9.85;;
39680;SDS011;26327;42.550;23.120;2022-07-30T15:35:07;11.25;;;9.93;;
39680;SDS011;26327;42.550;23.120;2022-07-30T15:37:47;10.82;;;9.73;;
39680;SDS011;26327;42.550;23.120;2022-07-30T15:40:12;11.30;;;9.43;;
39680;SDS011;26327;42.550;23.120;2022-07-30T15:42:40;11.95;;;8.90;;
39680;SDS011;26327;42.550;23.120;2022-07-30T15:45:06;10.48;;;8.57;;
39680;SDS011;26327;42.550;23.120;2022-07-30T15:47:32;11.98;;;8.70;;
39680;SDS011;26327;42.550;23.120;2022-07-30T15:49:58;10.00;;;9.00;;
39680;SDS011;26327;42.550;23.120;2022-07-30T15:52:24;11.10;;;8.23;;
39680;SDS011;26327;42.550;23.120;2022-07-30T15:54:49;17.75;;;9.57;;
39680;SDS011;26327;42.550;23.120;2022-07-30T15:57:15;14.48;;;9.30;;
39680;SDS011;26327;42.550;23.120;2022-07-30T15:59:40;9.23;;;7.82;;
39680;SDS011;26327;42.550;23.120;2022-07-30T16:02:09;12.25;;;8.65;;
39680;SDS011;26327;42.550;23.120;2022-07-30T16:04:35;18.93;;;8.83;;
39680;SDS011;26327;42.550;23.120;2022-07-30T16:07:00;15.43;;;8.93;;
39680;SDS011;26327;42.550;23.120;2022-07-30T16:09:28;12.48;;;8.15;;
39680;SDS011;26327;42.550;23.120;2022-07-30T16:11:55;13.88;;;8.20;;
39680;SDS011;26327;42.550;23.120;2022-07-30T16:14:21;9.02;;;8.13;;
39680;SDS011;26327;42.550;23.120;2022-07-30T16:16:46;9.30;;;8.25;;
39680;SDS011;26327;42.550;23.120;2022-07-30T16:19:12;9.20;;;8.27;;
39680;SDS011;26327;42.550;23.120;2022-07-30T16:21:38;13.95;;;8.75;;
39680;SDS011;26327;42.550;23.120;2022-07-30T16:24:03;9.38;;;8.30;;
39680;SDS011;26327;42.550;23.120;2022-07-30T16:26:29;10.18;;;9.13;;
39680;SDS011;26327;42.550;23.120;2022-07-30T16:28:55;10.65;;;8.23;;
39680;SDS011;26327;42.550;23.120;2022-07-30T16:31:21;11.38;;;8.48;;
39680;SDS011;26327;42.550;23.120;2022-07-30T16:33:47;13.82;;;8.43;;
39680;SDS011;26327;42.550;23.120;2022-07-30T16:36:13;13.02;;;8.88;;
39680;SDS011;26327;42.550;23.120;2022-07-30T16:38:39;11.55;;;9.30;;
39680;SDS011;26327;42.550;23.120;2022-07-30T16:41:05;12.77;;;8.73;;
39680;SDS011;26327;42.550;23.120;2022-07-30T16:43:31;11.75;;;8.40;;
39680;SDS011;26327;42.550;23.120;2022-07-30T16:45:57;11.20;;;9.30;;
39680;SDS011;26327;42.550;23.120;2022-07-30T16:48:23;10.23;;;9.02;;
39680;SDS011;26327;42.550;23.120;2022-07-30T16:50:49;10.30;;;7.80;;
39680;SDS011;26327;42.550;23.120;2022-07-30T16:53:15;9.40;;;8.40;;
39680;SDS011;26327;42.550;23.120;2022-07-30T16:55:44;9.98;;;8.93;;
39680;SDS011;26327;42.550;23.120;2022-07-30T16:58:11;12.68;;;9.02;;
39680;SDS011;26327;42.550;23.120;2022-07-30T17:00:37;11.82;;;8.13;;
39680;SDS011;26327;42.550;23.120;2022-07-30T17:03:02;10.88;;;8.90;;
39680;SDS011;26327;42.550;23.120;2022-07-30T17:05:28;10.00;;;8.02;;
39680;SDS011;26327;42.550;23.120;2022-07-30T17:07:53;11.23;;;8.38;;
39680;SDS011;26327;42.550;23.120;2022-07-30T17:10:19;10.07;;;8.88;;
39680;SDS011;26327;42.550;23.120;2022-07-30T17:12:45;10.60;;;8.77;;
39680;SDS011;26327;42.550;23.120;2022-07-30T17:15:12;15.23;;;8.43;;
39680;SDS011;26327;42.550;23.120;2022-07-30T17:17:37;9.63;;;8.27;;
39680;SDS011;26327;42.550;23.120;2022-07-30T17:20:03;10.45;;;7.97;;
39680;SDS011;26327;42.550;23.120;2022-07-30T17:22:31;12.05;;;8.75;;
39680;SDS011;26327;42.550;23.120;2022-07-30T17:24:57;11.40;;;8.50;;
39680;SDS011;26327;42.550;23.120;2022-07-30T17:27:24;13.95;;;10.20;;
39680;SDS011;26327;42.550;23.120;2022-07-30T17:29:53;10.95;;;8.60;;
39680;SDS011;26327;42.550;23.120;2022-07-30T17:32:19;13.73;;;8.60;;
39680;SDS011;26327;42.550;23.120;2022-07-30T17:34:46;15.57;;;8.27;;
39680;SDS011;26327;42.550;23.120;2022-07-30T17:37:13;16.80;;;8.73;;
39680;SDS011;26327;42.550;23.120;2022-07-30T17:39:39;12.45;;;7.90;;
39680;SDS011;26327;42.550;23.120;2022-07-30T17:42:05;11.35;;;8.75;;
39680;SDS011;26327;42.550;23.120;2022-07-30T17:44:31;23.33;;;8.85;;
39680;SDS011;26327;42.550;23.120;2022-07-30T17:46:57;10.35;;;7.93;;
39680;SDS011;26327;42.550;23.120;2022-07-30T17:49:23;9.55;;;7.45;;
39680;SDS011;26327;42.550;23.120;2022-07-30T17:51:48;8.07;;;6.82;;
39680;SDS011;26327;42.550;23.120;2022-07-30T17:54:14;18.90;;;9.10;;
39680;SDS011;26327;42.550;23.120;2022-07-30T17:56:39;14.18;;;8.50;;
39680;SDS011;26327;42.550;23.120;2022-07-30T17:59:05;13.98;;;8.73;;
39680;SDS011;26327;42.550;23.120;2022-07-30T18:01:31;13.00;;;8.65;;
39680;SDS011;26327;42.550;23.120;2022-07-30T18:03:57;14.60;;;10.63;;
39680;SDS011;26327;42.550;23.120;2022-07-30T18:06:22;14.55;;;10.70;;
39680;SDS011;26327;42.550;23.120;2022-07-30T18:08:48;14.10;;;11.27;;
39680;SDS011;26327;42.550;23.120;2022-07-30T18:11:13;13.02;;;11.63;;
39680;SDS011;26327;42.550;23.120;2022-07-30T18:13:39;16.73;;;12.38;;
39680;SDS011;26327;42.550;23.120;2022-07-30T18:16:05;15.00;;;12.23;;
39680;SDS011;26327;42.550;23.120;2022-07-30T18:18:30;15.90;;;13.32;;
39680;SDS011;26327;42.550;23.120;2022-07-30T18:20:55;15.82;;;13.43;;
39680;SDS011;26327;42.550;23.120;2022-07-30T18:23:21;20.30;;;13.55;;
39680;SDS011;26327;42.550;23.120;2022-07-30T18:25:48;18.98;;;14.63;;
39680;SDS011;26327;42.550;23.120;2022-07-30T18:28:14;23.52;;;15.52;;
39680;SDS011;26327;42.550;23.120;2022-07-30T18:30:39;17.55;;;14.45;;
39680;SDS011;26327;42.550;23.120;2022-07-30T18:33:05;19.45;;;14.70;;
39680;SDS011;26327;42.550;23.120;2022-07-30T18:35:31;22.80;;;15.07;;
39680;SDS011;26327;42.550;23.120;2022-07-30T18:37:56;21.33;;;15.57;;
39680;SDS011;26327;42.550;23.120;2022-07-30T18:40:22;16.35;;;14.38;;
39680;SDS011;26327;42.550;23.120;2022-07-30T18:42:48;20.80;;;14.25;;
39680;SDS011;26327;42.550;23.120;2022-07-30T18:45:13;16.77;;;12.60;;
39680;SDS011;26327;42.550;23.120;2022-07-30T18:47:40;18.17;;;13.00;;
39680;SDS011;26327;42.550;23.120;2022-07-30T18:50:07;18.42;;;12.73;;
39680;SDS011;26327;42.550;23.120;2022-07-30T18:52:33;15.70;;;11.60;;
39680;SDS011;26327;42.550;23.120;2022-07-30T18:54:59;15.35;;;11.52;;
39680;SDS011;26327;42.550;23.120;2022-07-30T18:57:25;15.90;;;10.77;;
39680;SDS011;26327;42.550;23.120;2022-07-30T18:59:51;15.95;;;11.05;;
39680;SDS011;26327;42.550;23.120;2022-07-30T19:02:16;14.55;;;10.57;;
39680;SDS011;26327;42.550;23.120;2022-07-30T19:04:42;13.73;;;10.85;;
39680;SDS011;26327;42.550;23.120;2022-07-30T19:07:07;14.30;;;10.45;;
39680;SDS011;26327;42.550;23.120;2022-07-30T19:09:33;14.77;;;10.65;;
39680;SDS011;26327;42.550;23.120;2022-07-30T19:11:58;17.15;;;10.63;;
39680;SDS011;26327;42.550;23.120;2022-07-30T19:14:24;13.57;;;9.32;;
39680;SDS011;26327;42.550;23.120;2022-07-30T19:16:50;12.82;;;10.40;;
39680;SDS011;26327;42.550;23.120;2022-07-30T19:22:40;16.42;;;11.48;;
39680;SDS011;26327;42.550;23.120;2022-07-30T19:25:17;20.13;;;13.13;;
39680;SDS011;26327;42.550;23.120;2022-07-30T19:27:45;15.85;;;14.15;;
39680;SDS011;26327;42.550;23.120;2022-07-30T19:30:11;14.52;;;12.40;;
39680;SDS011;26327;42.550;23.120;2022-07-30T19:32:39;13.35;;;11.90;;
39680;SDS011;26327;42.550;23.120;2022-07-30T19:35:07;15.38;;;12.27;;
39680;SDS011;26327;42.550;23.120;2022-07-30T19:37:33;15.32;;;12.20;;
39680;SDS011;26327;42.550;23.120;2022-07-30T19:40:02;16.08;;;13.18;;
39680;SDS011;26327;42.550;23.120;2022-07-30T19:42:28;13.93;;;12.35;;
39680;SDS011;26327;42.550;23.120;2022-07-30T19:44:56;17.52;;;13.57;;
39680;SDS011;26327;42.550;23.120;2022-07-30T19:47:22;15.40;;;13.40;;
39680;SDS011;26327;42.550;23.120;2022-07-30T19:49:50;15.90;;;11.25;;
39680;SDS011;26327;42.550;23.120;2022-07-30T19:52:17;16.83;;;12.65;;
39680;SDS011;26327;42.550;23.120;2022-07-30T19:54:47;15.27;;;13.20;;
39680;SDS011;26327;42.550;23.120;2022-07-30T19:57:12;16.00;;;12.55;;
39680;SDS011;26327;42.550;23.120;2022-07-30T19:59:38;14.48;;;12.43;;
39680;SDS011;26327;42.550;23.120;2022-07-30T20:02:05;12.88;;;11.48;;
39680;SDS011;26327;42.550;23.120;2022-07-30T20:04:30;14.48;;;11.55;;
39680;SDS011;26327;42.550;23.120;2022-07-30T20:06:56;14.82;;;12.15;;
39680;SDS011;26327;42.550;23.120;2022-07-30T20:09:21;14.70;;;12.27;;
39680;SDS011;26327;42.550;23.120;2022-07-30T20:11:47;15.48;;;13.18;;
39680;SDS011;26327;42.550;23.120;2022-07-30T20:14:12;14.23;;;12.32;;
39680;SDS011;26327;42.550;23.120;2022-07-30T20:16:38;14.88;;;11.88;;
39680;SDS011;26327;42.550;23.120;2022-07-30T20:19:03;16.55;;;12.82;;
39680;SDS011;26327;42.550;23.120;2022-07-30T20:21:29;13.95;;;11.95;;
39680;SDS011;26327;42.550;23.120;2022-07-30T20:23:55;12.45;;;9.50;;
39680;SDS011;26327;42.550;23.120;2022-07-30T20:26:20;14.50;;;9.82;;
39680;SDS011;26327;42.550;23.120;2022-07-30T20:28:46;10.18;;;9.07;;
39680;SDS011;26327;42.550;23.120;2022-07-30T20:31:12;10.88;;;8.00;;
39680;SDS011;26327;42.550;23.120;2022-07-30T20:33:39;13.02;;;8.82;;
39680;SDS011;26327;42.550;23.120;2022-07-30T20:36:05;9.98;;;8.52;;
39680;SDS011;26327;42.550;23.120;2022-07-30T20:38:31;10.13;;;7.80;;
39680;SDS011;26327;42.550;23.120;2022-07-30T20:41:00;10.57;;;7.22;;
39680;SDS011;26327;42.550;23.120;2022-07-30T20:43:26;8.18;;;5.93;;
39680;SDS011;26327;42.550;23.120;2022-07-30T20:45:51;8.27;;;6.22;;
39680;SDS011;26327;42.550;23.120;2022-07-30T20:48:17;8.20;;;6.57;;
39680;SDS011;26327;42.550;23.120;2022-07-30T20:50:43;7.45;;;6.65;;
39680;SDS011;26327;42.550;23.120;2022-07-30T20:53:11;10.07;;;5.93;;
39680;SDS011;26327;42.550;23.120;2022-07-30T20:55:37;7.53;;;5.88;;
39680;SDS011;26327;42.550;23.120;2022-07-30T20:58:06;7.95;;;5.32;;
39680;SDS011;26327;42.550;23.120;2022-07-30T21:00:35;5.82;;;4.38;;
39680;SDS011;26327;42.550;23.120;2022-07-30T21:03:02;6.47;;;5.00;;
39680;SDS011;26327;42.550;23.120;2022-07-30T21:05:33;7.38;;;5.93;;
39680;SDS011;26327;42.550;23.120;2022-07-30T21:08:01;7.43;;;5.78;;
39680;SDS011;26327;42.550;23.120;2022-07-30T21:10:27;10.10;;;9.00;;
39680;SDS011;26327;42.550;23.120;2022-07-30T21:12:52;11.23;;;9.35;;
39680;SDS011;26327;42.550;23.120;2022-07-30T21:15:18;11.15;;;9.15;;
39680;SDS011;26327;42.550;23.120;2022-07-30T21:17:43;12.57;;;10.40;;
39680;SDS011;26327;42.550;23.120;2022-07-30T21:20:09;12.05;;;10.50;;
39680;SDS011;26327;42.550;23.120;2022-07-30T21:22:35;10.27;;;9.18;;
39680;SDS011;26327;42.550;23.120;2022-07-30T21:25:01;11.77;;;10.52;;
39680;SDS011;26327;42.550;23.120;2022-07-30T21:27:27;11.50;;;10.30;;
39680;SDS011;26327;42.550;23.120;2022-07-30T21:29:54;12.63;;;10.82;;
